createdAt,value
2018-11-20T00:01:06.423Z,4.50
2018-11-20T00:03:52.205Z,4.50
2018-11-20T00:06:38.076Z,4.50
2018-11-20T00:09:23.346Z,4.50
2018-11-20T00:12:19.585Z,4.50
2018-11-20T00:14:56.644Z,4.50
2018-11-20T00:17:42.713Z,4.50
2018-11-20T00:20:32.394Z,4.50
2018-11-20T00:23:18.244Z,4.50
2018-11-20T00:26:19.604Z,4.50
2018-11-20T00:29:12.864Z,4.50
2018-11-20T00:32:02.967Z,4.50
2018-11-20T00:34:55.459Z,4.50
2018-11-20T00:37:45.578Z,4.40
2018-11-20T00:40:24.970Z,4.40
2018-11-20T00:43:19.343Z,4.30
2018-11-20T00:46:05.557Z,4.20
2018-11-20T00:48:51.537Z,4.20
2018-11-20T00:51:37.347Z,4.20
2018-11-20T00:54:19.233Z,4.10
2018-11-20T00:57:05.167Z,4.10
2018-11-20T00:59:50.907Z,4.10
2018-11-20T01:02:45.458Z,4.10
2018-11-20T01:05:29.476Z,4.10
2018-11-20T01:08:15.340Z,4.00
2018-11-20T01:11:01.184Z,4.00
2018-11-20T01:13:49.515Z,4.10
2018-11-20T01:16:30.771Z,4.10
2018-11-20T01:19:20.313Z,4.10
2018-11-20T01:22:03.981Z,4.20
2018-11-20T01:24:50.793Z,4.20
2018-11-20T01:27:56.044Z,4.10
2018-11-20T01:30:41.682Z,4.20
2018-11-20T01:33:27.714Z,4.20
2018-11-20T01:36:12.691Z,4.20
2018-11-20T01:38:48.678Z,4.20
2018-11-20T01:41:34.481Z,4.10
2018-11-20T01:44:23.801Z,4.10
2018-11-20T01:47:09.723Z,4.10
2018-11-20T01:50:05.893Z,4.10
2018-11-20T01:52:59.215Z,4.10
2018-11-20T01:55:50.855Z,4.20
2018-11-20T01:58:41.131Z,4.10
2018-11-20T02:01:27.081Z,4.20
2018-11-20T02:04:14.431Z,4.20
2018-11-20T02:06:51.423Z,4.20
2018-11-20T02:09:38.349Z,4.10
2018-11-20T02:12:24.137Z,4.10
2018-11-20T02:15:18.295Z,4.10
2018-11-20T02:18:18.190Z,4.20
2018-11-20T02:21:06.053Z,4.20
2018-11-20T02:23:46.707Z,4.20
2018-11-20T02:26:32.353Z,4.10
2018-11-20T02:29:28.636Z,4.20
2018-11-20T02:32:21.824Z,4.20
2018-11-20T02:35:16.017Z,4.20
2018-11-20T02:38:01.800Z,4.20
2018-11-20T02:40:49.302Z,4.20
2018-11-20T02:43:42.427Z,4.20
2018-11-20T02:46:28.529Z,4.20
2018-11-20T02:49:21.620Z,4.30
2018-11-20T02:52:06.304Z,4.30
2018-11-20T02:55:02.777Z,4.20
2018-11-20T02:57:48.808Z,4.20
2018-11-20T03:00:36.710Z,4.20
2018-11-20T03:03:32.442Z,4.20
2018-11-20T03:06:20.404Z,4.20
2018-11-20T03:09:06.223Z,4.20
2018-11-20T03:11:57.896Z,4.20
2018-11-20T03:14:53.901Z,4.20
2018-11-20T03:17:47.084Z,4.20
2018-11-20T03:20:44.491Z,4.20
2018-11-20T03:23:26.159Z,4.20
2018-11-20T03:26:17.114Z,4.20
2018-11-20T03:29:12.343Z,4.20
2018-11-20T03:32:00.579Z,4.20
2018-11-20T03:34:53.620Z,4.20
2018-11-20T03:37:30.257Z,4.30
2018-11-20T03:40:11.655Z,4.30
2018-11-20T03:42:57.745Z,4.30
2018-11-20T03:45:48.612Z,4.20
2018-11-20T03:48:35.878Z,4.30
2018-11-20T03:51:34.163Z,4.30
2018-11-20T03:54:17.844Z,4.30
2018-11-20T03:56:53.580Z,4.40
2018-11-20T03:59:38.133Z,4.40
2018-11-20T04:02:27.039Z,4.40
2018-11-20T04:05:12.929Z,4.30
2018-11-20T04:08:13.386Z,4.30
2018-11-20T04:11:12.664Z,4.30
2018-11-20T04:13:54.449Z,4.30
2018-11-20T04:16:45.090Z,4.30
2018-11-20T04:19:34.781Z,4.20
2018-11-20T04:22:20.991Z,4.30
2018-11-20T04:25:07.182Z,4.20
2018-11-20T04:27:48.005Z,4.30
2018-11-20T04:31:19.494Z,4.40
2018-11-20T04:34:11.030Z,4.30
2018-11-20T04:36:56.975Z,4.20
2018-11-20T04:39:47.803Z,4.20
2018-11-20T04:42:45.189Z,4.30
2018-11-20T04:45:44.648Z,4.30
2018-11-20T04:48:30.630Z,4.40
2018-11-20T04:51:08.273Z,4.40
2018-11-20T04:53:54.699Z,4.40
2018-11-20T04:56:43.046Z,4.50
2018-11-20T04:59:30.367Z,4.50
2018-11-20T05:02:26.484Z,4.50
2018-11-20T05:05:12.530Z,4.50
2018-11-20T05:08:12.269Z,4.50
2018-11-20T05:11:23.924Z,4.40
2018-11-20T05:14:21.566Z,4.50
2018-11-20T05:17:16.671Z,4.40
2018-11-20T05:20:03.689Z,4.50
2018-11-20T05:22:53.648Z,4.50
2018-11-20T05:25:40.866Z,4.50
2018-11-20T05:28:17.384Z,4.40
2018-11-20T05:31:10.017Z,4.50
2018-11-20T05:33:55.595Z,4.50
2018-11-20T05:36:37.021Z,4.60
2018-11-20T05:39:26.172Z,4.60
2018-11-20T05:42:11.823Z,4.60
2018-11-20T05:45:05.550Z,4.60
2018-11-20T05:47:49.657Z,4.60
2018-11-20T05:50:36.736Z,4.50
2018-11-20T05:53:21.948Z,4.50
2018-11-20T05:56:18.214Z,4.50
2018-11-20T05:59:09.338Z,4.60
2018-11-20T06:01:51.555Z,4.60
2018-11-20T06:04:57.873Z,4.70
2018-11-20T06:07:45.135Z,4.60
2018-11-20T06:10:35.799Z,4.60
2018-11-20T06:13:21.411Z,4.50
2018-11-20T06:16:07.502Z,4.60
2018-11-20T06:18:53.300Z,4.60
2018-11-20T06:21:39.226Z,4.60
2018-11-20T06:24:26.915Z,4.50
2018-11-20T06:27:17.941Z,4.50
2018-11-20T06:30:05.316Z,4.50
2018-11-20T06:32:51.561Z,4.50
2018-11-20T06:35:37.771Z,4.50
2018-11-20T06:38:19.345Z,4.50
2018-11-20T06:41:17.233Z,4.50
2018-11-20T06:44:09.346Z,4.50
2018-11-20T06:47:00.475Z,4.60
2018-11-20T06:49:50.726Z,4.50
2018-11-20T06:52:37.209Z,4.50
2018-11-20T06:55:25.919Z,4.50
2018-11-20T06:58:08.169Z,4.60
2018-11-20T07:00:55.204Z,4.60
2018-11-20T07:03:48.110Z,4.50
2018-11-20T07:06:37.368Z,4.50
2018-11-20T07:09:26.716Z,4.40
2018-11-20T07:12:16.833Z,4.40
2018-11-20T07:15:06.206Z,4.40
2018-11-20T07:17:59.641Z,4.40
2018-11-20T07:21:05.296Z,4.40
2018-11-20T07:23:55.518Z,4.30
2018-11-20T07:26:41.998Z,4.30
2018-11-20T07:29:29.314Z,4.30
2018-11-20T07:32:16.103Z,4.30
2018-11-20T07:35:02.030Z,4.40
2018-11-20T07:37:59.343Z,4.60
2018-11-20T07:40:44.341Z,4.60
2018-11-20T07:43:31.158Z,4.70
2018-11-20T07:46:07.725Z,4.80
2018-11-20T07:48:54.040Z,4.80
2018-11-20T07:51:44.949Z,4.70
2018-11-20T07:54:40.895Z,4.70
2018-11-20T07:57:28.298Z,4.80
2018-11-20T08:00:18.692Z,4.70
2018-11-20T08:03:11.812Z,4.80
2018-11-20T08:05:54.192Z,4.80
2018-11-20T08:08:49.981Z,4.80
2018-11-20T08:11:29.335Z,4.80
2018-11-20T08:14:12.418Z,4.90
2018-11-20T08:16:53.924Z,4.90
2018-11-20T08:19:44.247Z,4.90
2018-11-20T08:22:33.574Z,4.90
2018-11-20T08:25:22.011Z,4.90
2018-11-20T08:28:17.296Z,4.90
2018-11-20T08:31:13.908Z,4.80
2018-11-20T08:34:10.087Z,4.90
2018-11-20T08:36:52.472Z,5.00
2018-11-20T08:39:48.439Z,4.90
2018-11-20T08:42:34.873Z,5.00
2018-11-20T08:45:32.398Z,5.00
2018-11-20T08:48:32.550Z,5.00
2018-11-20T08:51:15.094Z,4.90
2018-11-20T08:54:01.243Z,4.80
2018-11-20T08:56:54.946Z,5.00
2018-11-20T08:59:42.678Z,5.10
2018-11-20T09:02:29.310Z,5.10
2018-11-20T09:05:25.767Z,5.20
2018-11-20T09:08:12.147Z,5.20
2018-11-20T09:10:59.600Z,5.20
2018-11-20T09:14:05.738Z,5.00
2018-11-20T09:16:59.711Z,5.20
2018-11-20T09:19:45.808Z,5.30
2018-11-20T09:22:29.995Z,5.30
2018-11-20T09:25:19.986Z,5.30
2018-11-20T09:28:02.531Z,5.40
2018-11-20T09:30:53.852Z,5.50
2018-11-20T09:33:39.647Z,5.50
2018-11-20T09:36:18.366Z,5.50
2018-11-20T09:39:00.231Z,5.50
2018-11-20T09:41:38.948Z,5.50
2018-11-20T09:44:39.025Z,5.50
2018-11-20T09:47:34.992Z,5.50
2018-11-20T09:50:35.347Z,5.50
2018-11-20T09:53:16.249Z,5.50
2018-11-20T09:56:09.413Z,5.50
2018-11-20T09:58:44.828Z,5.60
2018-11-20T10:01:21.564Z,5.60
2018-11-20T10:03:56.981Z,5.60
2018-11-20T10:06:49.146Z,5.60
2018-11-20T10:09:49.391Z,5.60
2018-11-20T10:12:36.683Z,5.60
2018-11-20T10:15:37.097Z,5.60
2018-11-20T10:18:33.376Z,5.60
2018-11-20T10:21:23.735Z,5.60
2018-11-20T10:24:29.323Z,5.60
2018-11-20T10:27:19.521Z,5.60
2018-11-20T10:30:05.234Z,5.70
2018-11-20T10:32:50.887Z,5.70
2018-11-20T10:35:38.244Z,5.70
2018-11-20T10:38:26.338Z,5.80
2018-11-20T10:41:19.356Z,5.80
2018-11-20T10:44:08.129Z,5.80
2018-11-20T10:47:01.518Z,5.80
2018-11-20T10:49:47.535Z,5.80
2018-11-20T10:52:44.229Z,5.80
2018-11-20T10:55:30.393Z,5.80
2018-11-20T10:58:19.196Z,5.90
2018-11-20T11:01:05.672Z,5.90
2018-11-20T11:03:51.518Z,5.90
2018-11-20T11:06:37.811Z,5.80
2018-11-20T11:09:28.525Z,5.90
2018-11-20T11:12:13.730Z,5.90
2018-11-20T11:15:00.093Z,5.80
2018-11-20T11:17:48.034Z,6.00
2018-11-20T11:20:36.177Z,6.00
2018-11-20T11:23:23.743Z,6.00
2018-11-20T11:26:11.143Z,6.00
2018-11-20T11:28:57.050Z,6.00
2018-11-20T11:31:53.179Z,6.00
2018-11-20T11:34:43.541Z,6.00
2018-11-20T11:37:19.884Z,6.00
2018-11-20T11:40:03.669Z,6.10
2018-11-20T11:42:52.979Z,6.10
2018-11-20T11:45:42.432Z,6.20
2018-11-20T11:48:43.428Z,6.20
2018-11-20T11:51:28.348Z,6.20
2018-11-20T11:54:11.564Z,6.20
2018-11-20T11:56:51.544Z,6.20
2018-11-20T11:59:57.091Z,6.20
2018-11-20T12:05:35.775Z,6.40
2018-11-20T12:08:13.735Z,6.40
2018-11-20T12:11:04.917Z,6.40
2018-11-20T12:14:00.124Z,6.30
2018-11-20T12:16:56.785Z,6.40
2018-11-20T12:19:46.933Z,6.40
2018-11-20T12:22:38.732Z,6.40
2018-11-20T12:25:42.570Z,6.40
2018-11-20T12:28:27.634Z,6.40
2018-11-20T12:31:11.833Z,6.30
2018-11-20T12:33:52.832Z,6.40
2018-11-20T12:36:32.870Z,6.40
2018-11-20T12:39:29.246Z,6.40
2018-11-20T12:42:22.394Z,6.30
2018-11-20T12:45:00.673Z,6.30
2018-11-20T12:47:57.413Z,6.30
2018-11-20T12:51:03.289Z,6.30
2018-11-20T12:53:42.821Z,6.20
2018-11-20T12:56:49.223Z,6.20
2018-11-20T12:59:53.852Z,6.10
2018-11-20T13:02:40.131Z,6.20
2018-11-20T13:05:17.318Z,6.20
2018-11-20T13:08:20.790Z,6.20
2018-11-20T13:11:06.626Z,6.20
2018-11-20T13:14:07.339Z,6.20
2018-11-20T13:17:07.088Z,6.20
2018-11-20T13:19:52.796Z,6.20
2018-11-20T13:22:43.888Z,6.10
2018-11-20T13:25:31.194Z,6.00
2018-11-20T13:28:21.478Z,6.00
2018-11-20T13:31:07.530Z,6.00
2018-11-20T13:33:51.929Z,6.00
2018-11-20T13:36:45.895Z,6.10
2018-11-20T13:39:37.587Z,6.00
2018-11-20T13:42:33.557Z,5.90
2018-11-20T13:45:24.872Z,6.00
2018-11-20T13:48:13.183Z,6.00
2018-11-20T13:50:46.848Z,6.00
2018-11-20T13:53:25.406Z,5.90
2018-11-20T13:56:12.762Z,5.80
2018-11-20T13:58:58.855Z,5.90
2018-11-20T14:01:45.261Z,5.90
2018-11-20T14:04:41.291Z,5.90
2018-11-20T14:07:34.658Z,5.90
2018-11-20T14:10:28.079Z,5.80
2018-11-20T14:13:11.662Z,5.80
2018-11-20T14:15:52.976Z,5.80
2018-11-20T14:18:42.912Z,5.80
2018-11-20T14:21:48.179Z,5.80
2018-11-20T14:24:34.888Z,5.70
2018-11-20T14:27:21.953Z,5.50
2018-11-20T14:30:09.321Z,5.50
2018-11-20T14:33:15.060Z,5.50
2018-11-20T14:36:08.221Z,5.60
2018-11-20T14:38:47.348Z,5.50
2018-11-20T14:41:35.762Z,5.50
2018-11-20T14:44:20.863Z,5.60
2018-11-20T14:47:07.076Z,5.60
2018-11-20T14:49:56.511Z,5.60
2018-11-20T14:52:46.631Z,5.50
2018-11-20T14:55:42.059Z,5.60
2018-11-20T14:58:35.048Z,5.60
2018-11-20T15:01:22.030Z,5.60
2018-11-20T15:03:58.294Z,5.60
2018-11-20T15:06:49.406Z,5.50
2018-11-20T15:10:33.589Z,5.50
2018-11-20T15:13:30.505Z,5.50
2018-11-20T15:16:05.581Z,5.50
2018-11-20T15:18:52.784Z,5.60
2018-11-20T15:21:33.652Z,5.60
2018-11-20T15:24:20.731Z,5.60
2018-11-20T15:27:06.061Z,5.60
2018-11-20T15:29:51.491Z,5.60
2018-11-20T15:32:45.594Z,5.60
2018-11-20T15:35:56.409Z,5.70
2018-11-20T15:38:33.351Z,5.60
2018-11-20T15:41:45.137Z,5.60
2018-11-20T15:44:47.057Z,5.60
2018-11-20T15:47:40.902Z,5.70
2018-11-20T15:50:18.928Z,5.70
2018-11-20T15:53:09.917Z,5.60
2018-11-20T15:56:02.324Z,5.60
2018-11-20T15:58:46.644Z,5.60
2018-11-20T16:01:36.513Z,5.60
2018-11-20T16:04:23.157Z,5.60
2018-11-20T16:07:08.834Z,5.70
2018-11-20T16:10:15.892Z,5.50
2018-11-20T16:13:02.106Z,5.50
2018-11-20T16:15:52.603Z,5.60
2018-11-20T16:18:31.276Z,5.60
2018-11-20T16:21:16.758Z,5.50
2018-11-20T16:24:01.966Z,5.50
2018-11-20T16:27:03.676Z,5.50
2018-11-20T16:30:07.376Z,5.70
2018-11-20T16:32:53.936Z,5.60
2018-11-20T16:35:48.272Z,5.60
2018-11-20T16:38:48.917Z,5.60
2018-11-20T16:41:34.239Z,5.50
2018-11-20T16:44:19.772Z,5.50
2018-11-20T16:47:13.019Z,5.60
2018-11-20T16:50:01.141Z,5.60
2018-11-20T16:52:46.489Z,5.70
2018-11-20T16:55:55.042Z,5.80
2018-11-20T16:58:38.645Z,5.80
2018-11-20T17:01:43.313Z,5.70
2018-11-20T17:04:34.996Z,5.70
2018-11-20T17:07:22.960Z,5.60
2018-11-20T17:10:10.162Z,5.60
2018-11-20T17:12:56.837Z,5.60
2018-11-20T17:15:47.732Z,5.60
2018-11-20T17:18:38.812Z,5.50
2018-11-20T17:21:20.622Z,5.50
2018-11-20T17:24:06.282Z,5.60
2018-11-20T17:26:52.600Z,5.60
2018-11-20T17:29:42.190Z,5.50
2018-11-20T17:32:29.798Z,5.40
2018-11-20T17:35:21.120Z,5.30
2018-11-20T17:38:36.881Z,5.30
2018-11-20T17:41:35.068Z,5.40
2018-11-20T17:44:10.672Z,5.30
2018-11-20T17:46:52.272Z,5.60
2018-11-20T17:49:38.579Z,5.60
2018-11-20T17:52:23.548Z,5.60
2018-11-20T17:55:10.132Z,5.50
2018-11-20T17:57:57.149Z,5.40
2018-11-20T18:00:48.510Z,5.40
2018-11-20T18:03:48.520Z,5.40
2018-11-20T18:06:34.022Z,5.30
2018-11-20T18:09:09.885Z,5.40
2018-11-20T18:11:55.375Z,5.50
2018-11-20T18:14:54.463Z,5.60
2018-11-20T18:17:41.212Z,5.60
2018-11-20T18:20:27.620Z,5.60
2018-11-20T18:23:35.008Z,5.50
2018-11-20T18:26:23.126Z,5.50
2018-11-20T18:29:20.847Z,5.40
2018-11-20T18:32:07.822Z,5.40
2018-11-20T18:34:53.234Z,5.50
2018-11-20T18:37:50.945Z,5.50
2018-11-20T18:41:04.707Z,5.40
2018-11-20T18:43:54.456Z,5.50
2018-11-20T18:46:51.659Z,5.60
2018-11-20T18:49:42.348Z,5.60
2018-11-20T18:52:27.663Z,5.60
2018-11-20T18:55:29.379Z,5.70
2018-11-20T18:58:20.671Z,5.70
2018-11-20T19:01:12.992Z,5.60
2018-11-20T19:04:02.897Z,5.60
2018-11-20T19:06:59.161Z,5.50
2018-11-20T19:09:55.775Z,5.50
2018-11-20T19:12:42.540Z,5.50
2018-11-20T19:15:40.720Z,5.50
2018-11-20T19:18:15.242Z,5.50
2018-11-20T19:20:58.894Z,5.40
2018-11-20T19:23:58.668Z,5.30
2018-11-20T19:26:44.833Z,5.40
2018-11-20T19:29:29.464Z,5.40
2018-11-20T19:32:13.045Z,5.50
2018-11-20T19:34:59.110Z,5.60
2018-11-20T19:38:05.309Z,5.60
2018-11-20T19:41:01.106Z,5.50
2018-11-20T19:43:46.755Z,5.50
2018-11-20T19:46:30.828Z,5.50
2018-11-20T19:49:10.878Z,5.40
2018-11-20T19:52:01.002Z,5.40
2018-11-20T19:54:44.228Z,5.40
2018-11-20T19:57:37.500Z,5.40
2018-11-20T20:00:28.894Z,5.60
2018-11-20T20:03:18.464Z,5.70
2018-11-20T20:06:17.662Z,5.80
2018-11-20T20:09:20.918Z,5.80
2018-11-20T20:12:06.666Z,5.70
2018-11-20T20:15:08.181Z,5.50
2018-11-20T20:17:49.386Z,5.50
2018-11-20T20:20:35.768Z,5.40
2018-11-20T20:23:40.666Z,5.40
2018-11-20T20:26:22.812Z,5.50
2018-11-20T20:29:09.559Z,5.60
2018-11-20T20:31:47.001Z,5.70
2018-11-20T20:34:32.690Z,5.60
2018-11-20T20:37:20.960Z,5.50
2018-11-20T20:40:03.455Z,5.40
2018-11-20T20:42:48.746Z,5.40
2018-11-20T20:45:31.165Z,5.30
2018-11-20T20:48:25.455Z,5.30
2018-11-20T20:51:22.219Z,5.30
2018-11-20T20:54:02.765Z,5.30
2018-11-20T20:56:46.066Z,5.30
2018-11-20T20:59:32.315Z,5.40
2018-11-20T21:02:20.391Z,5.40
2018-11-20T21:05:16.809Z,5.50
2018-11-20T21:08:11.030Z,5.60
2018-11-20T21:11:01.458Z,5.60
2018-11-20T21:13:49.802Z,5.50
2018-11-20T21:16:37.297Z,5.50
2018-11-20T21:19:24.200Z,5.40
2018-11-20T21:22:21.393Z,5.40
2018-11-20T21:25:15.717Z,5.30
2018-11-20T21:28:05.253Z,5.30
2018-11-20T21:30:50.782Z,5.20
2018-11-20T21:33:45.592Z,5.40
2018-11-20T21:36:38.436Z,5.40
2018-11-20T21:39:40.582Z,5.40
2018-11-20T21:42:20.975Z,5.40
2018-11-20T21:45:07.119Z,5.40
2018-11-20T21:48:00.358Z,5.40
2018-11-20T21:50:46.317Z,5.40
2018-11-20T21:53:42.798Z,5.30
2018-11-20T21:56:29.867Z,5.30
2018-11-20T21:59:17.618Z,5.20
2018-11-20T22:02:04.904Z,5.10
2018-11-20T22:04:43.502Z,5.10
2018-11-20T22:07:27.964Z,5.10
2018-11-20T22:10:14.928Z,5.20
2018-11-20T22:13:13.251Z,5.30
2018-11-20T22:15:58.685Z,5.30
2018-11-20T22:18:52.010Z,5.30
2018-11-20T22:21:42.071Z,5.30
2018-11-20T22:24:39.968Z,5.30
2018-11-20T22:27:26.548Z,5.40
2018-11-20T22:30:18.403Z,5.40
2018-11-20T22:33:03.402Z,5.30
2018-11-20T22:35:44.993Z,5.20
2018-11-20T22:38:20.329Z,5.10
2018-11-20T22:41:05.662Z,5.10
2018-11-20T22:43:43.010Z,5.10
2018-11-20T22:46:39.704Z,5.00
2018-11-20T22:49:34.901Z,4.90
2018-11-20T22:52:41.184Z,5.00
2018-11-20T22:55:54.487Z,5.00
2018-11-20T22:58:56.296Z,4.80
2018-11-20T23:01:57.696Z,4.90
2018-11-20T23:05:04.548Z,4.80
2018-11-20T23:07:51.104Z,4.90
2018-11-20T23:10:19.116Z,4.80
2018-11-20T23:12:46.036Z,4.80
2018-11-20T23:15:15.058Z,4.70
2018-11-20T23:17:42.058Z,4.80
2018-11-20T23:20:09.803Z,4.90
2018-11-20T23:22:38.764Z,4.80
2018-11-20T23:25:08.772Z,4.70
2018-11-20T23:27:35.639Z,4.60
2018-11-20T23:30:03.157Z,4.60
2018-11-20T23:32:35.815Z,4.70
2018-11-20T23:35:09.246Z,4.70
2018-11-20T23:37:42.525Z,4.80
2018-11-20T23:40:10.585Z,4.80
2018-11-20T23:42:38.737Z,4.90
2018-11-20T23:45:07.601Z,4.90
2018-11-20T23:47:34.405Z,5.00
2018-11-20T23:50:01.263Z,5.10
2018-11-20T23:52:28.243Z,5.00
2018-11-20T23:54:55.166Z,4.90
2018-11-20T23:57:22.060Z,4.80
2018-11-20T23:59:49.113Z,4.70
